Airfield :
LOGIN :

Register | Disclaimer

   EN    FR    IT 

 










Legend :    VFR   Marginal VFR   IFR   Intensive IFR   Very Intensive IFR
Visi :
Ceiling :
>= 8 km
>= 3000ft
5 to 8 km
1000 to 3000 ft
1500m to 5 km
500 to 1000 ft
800 to 1500m
200 to 500 ft
< 800m
< 200 ft
Symbols :   Thunderstorms  Fog  Heavy snow  Heavy precipitations  Wind > 20 kt
SIGMETs :     Misc.  Thunderstorms  Icing  Turbulence  Mountain Waves  Volcanic Ashes







- Airport Elevation : 0 ft


ETEB - Ansbach Army Heliport

CURRENT METAR :
  • 201902Z AUTO 21011G18KT 9999 OVC016 02/01 A2998 RMK AO2 DZE02 OVC V BKN SLP186 $

EXPIRED METARs :
  • 201852Z AUTO 21014G18KT 9999 -DZ BKN017 OVC027 02/01 A2998 RMK AO2 RAE1758RAB03E47DZB52 CIG 017V031 SLP186 $
  • 201847Z AUTO 21010KT 9999 BKN017 OVC029 02/01 A2999 RMK AO2 RAE1758RAB03E47 CIG 017V031 SLP189 $
  • 201803Z AUTO 22009KT 9999 -RA FEW018 SCT028 02/01 A3001 RMK AO2 RAE1758RAB03 SLP196 $
  • 201752Z 22008KT 9999 -RASN FEW019 SCT028 02/01 A3002 RMK RAE18RAB23E33RAB44 SLP200 $
  • 201744Z 22008KT 9999 -RA SCT027 02/01 A3002 RMK AO2A RAE18RAB23E33RAB44 SLP200 $
  • 201723Z AUTO 21006KT 9999 -RA FEW024 02/00 A3003 RMK AO2 RAE18RAB23 SLP203 $
  • 201721Z 22007KT 9999 FEW024 02/00 A3003 RMK RAE18 SLP203 $
  • 201656Z AUTO 22008KT 9999 -RA FEW008 M A3005 RMK AO2 RAE03RAB27E42RAB47 SLPNO ALSTG ESTMD P0000 RVRNO CHINO RWY26 $
  • 201627Z 21007KT 9999 -RA FEW009 02/01 A3005 RMK AO2A RAE03RAB27 SLP210 $
  • 201603Z AUTO 20006KT 9999 SCT070 SCT110 02/01 A3005 RMK AO2 RAE03 SLP210 $

TAF AMD TAF ETEB
Valid from the 20 at 18:00 until the 21 at 19:00 UTC


201823Z 2018/2119 23012KT 6000 -RA BKN015 OVC025 620209 621101 QNH2999INS
BECMG 2020/2021 25012G20KT 9000 -RA BKN008 OVC010 620709 621602 QNH2991INS
TEMPO 2021/2103 25020G35KT 520003
BECMG 2116/2117 25012KT 9999 NSW BKN008 OVC010 QNH2989INS TX07/2112Z TN01/2018Z
No reported NOTAMs for that airfield.



MET'MAP, your aeronautical weather chart ! - Copyright ORBIFLY December 2007 - Disclaimer

ORBIFLY MET'MAP TEAM :

Programming & Development : Alexandra Zaïnal
Concept & Development : Baudouin d'Aumeries
Co-Development & Prog : Marc-Olivier Méhu
Technical & hardware support : Manuel Goepfert

Contact : metmap@orbifly.com




SOURCES & CREDITS :

   NOAA